sensor_id;sensor_type;location;lat;lon;timestamp;P1;durP1;ratioP1;P2;durP2;ratioP2
64339;SDS011;63709;53.258;-8.814;2023-05-15T00:03:41;8.98;;;2.20;;
64339;SDS011;63709;53.258;-8.814;2023-05-15T00:06:13;7.72;;;2.35;;
64339;SDS011;63709;53.258;-8.814;2023-05-15T00:08:39;12.13;;;2.72;;
64339;SDS011;63709;53.258;-8.814;2023-05-15T00:11:04;9.85;;;2.30;;
64339;SDS011;63709;53.258;-8.814;2023-05-15T00:13:30;8.73;;;2.10;;
64339;SDS011;63709;53.258;-8.814;2023-05-15T00:15:56;12.18;;;2.50;;
64339;SDS011;63709;53.258;-8.814;2023-05-15T00:18:22;5.60;;;2.08;;
64339;SDS011;63709;53.258;-8.814;2023-05-15T00:20:48;7.13;;;2.22;;
64339;SDS011;63709;53.258;-8.814;2023-05-15T00:23:13;15.23;;;2.47;;
64339;SDS011;63709;53.258;-8.814;2023-05-15T00:25:39;7.90;;;2.15;;
64339;SDS011;63709;53.258;-8.814;2023-05-15T00:28:06;13.27;;;2.53;;
64339;SDS011;63709;53.258;-8.814;2023-05-15T00:30:33;10.93;;;2.05;;
64339;SDS011;63709;53.258;-8.814;2023-05-15T00:32:58;10.88;;;2.10;;
64339;SDS011;63709;53.258;-8.814;2023-05-15T00:35:24;10.45;;;2.40;;
64339;SDS011;63709;53.258;-8.814;2023-05-15T00:37:50;8.45;;;2.65;;
64339;SDS011;63709;53.258;-8.814;2023-05-15T00:40:21;8.88;;;2.25;;
64339;SDS011;63709;53.258;-8.814;2023-05-15T00:42:49;8.65;;;2.20;;
64339;SDS011;63709;53.258;-8.814;2023-05-15T00:45:16;8.38;;;2.33;;
64339;SDS011;63709;53.258;-8.814;2023-05-15T00:47:43;6.32;;;2.00;;
64339;SDS011;63709;53.258;-8.814;2023-05-15T00:50:10;8.02;;;2.03;;
64339;SDS011;63709;53.258;-8.814;2023-05-15T00:52:36;5.60;;;2.03;;
64339;SDS011;63709;53.258;-8.814;2023-05-15T00:57:31;10.57;;;2.15;;
64339;SDS011;63709;53.258;-8.814;2023-05-15T00:59:58;13.85;;;2.30;;
64339;SDS011;63709;53.258;-8.814;2023-05-15T01:02:25;8.82;;;2.13;;
64339;SDS011;63709;53.258;-8.814;2023-05-15T01:04:50;8.63;;;2.08;;
64339;SDS011;63709;53.258;-8.814;2023-05-15T01:07:16;8.52;;;2.00;;
64339;SDS011;63709;53.258;-8.814;2023-05-15T01:09:42;8.70;;;1.98;;
64339;SDS011;63709;53.258;-8.814;2023-05-15T01:14:35;8.77;;;1.80;;
64339;SDS011;63709;53.258;-8.814;2023-05-15T01:17:01;10.15;;;1.90;;
64339;SDS011;63709;53.258;-8.814;2023-05-15T01:19:27;6.57;;;1.65;;
64339;SDS011;63709;53.258;-8.814;2023-05-15T01:43:55;12.18;;;1.88;;
64339;SDS011;63709;53.258;-8.814;2023-05-15T01:48:54;14.45;;;2.42;;
64339;SDS011;63709;53.258;-8.814;2023-05-15T01:51:22;8.52;;;2.00;;
64339;SDS011;63709;53.258;-8.814;2023-05-15T01:53:50;9.43;;;1.85;;
64339;SDS011;63709;53.258;-8.814;2023-05-15T01:56:18;4.78;;;1.65;;
64339;SDS011;63709;53.258;-8.814;2023-05-15T01:58:45;9.75;;;1.98;;
64339;SDS011;63709;53.258;-8.814;2023-05-15T02:01:12;7.85;;;2.20;;
64339;SDS011;63709;53.258;-8.814;2023-05-15T02:03:38;8.02;;;1.95;;
64339;SDS011;63709;53.258;-8.814;2023-05-15T02:06:05;8.75;;;1.92;;
64339;SDS011;63709;53.258;-8.814;2023-05-15T02:08:33;9.40;;;1.60;;
64339;SDS011;63709;53.258;-8.814;2023-05-15T02:11:00;8.07;;;2.08;;
64339;SDS011;63709;53.258;-8.814;2023-05-15T02:13:27;4.50;;;1.88;;
64339;SDS011;63709;53.258;-8.814;2023-05-15T02:15:55;7.03;;;1.90;;
64339;SDS011;63709;53.258;-8.814;2023-05-15T02:18:21;7.75;;;2.08;;
64339;SDS011;63709;53.258;-8.814;2023-05-15T02:20:48;10.10;;;1.85;;
64339;SDS011;63709;53.258;-8.814;2023-05-15T02:23:14;6.90;;;1.95;;
64339;SDS011;63709;53.258;-8.814;2023-05-15T02:25:53;6.28;;;2.10;;
64339;SDS011;63709;53.258;-8.814;2023-05-15T02:28:29;10.35;;;2.08;;
64339;SDS011;63709;53.258;-8.814;2023-05-15T02:31:12;11.23;;;2.30;;
64339;SDS011;63709;53.258;-8.814;2023-05-15T02:33:52;9.45;;;2.00;;
64339;SDS011;63709;53.258;-8.814;2023-05-15T02:36:27;8.07;;;2.00;;
64339;SDS011;63709;53.258;-8.814;2023-05-15T02:38:57;9.85;;;2.00;;
64339;SDS011;63709;53.258;-8.814;2023-05-15T02:41:24;9.27;;;1.85;;
64339;SDS011;63709;53.258;-8.814;2023-05-15T02:43:50;9.20;;;2.05;;
64339;SDS011;63709;53.258;-8.814;2023-05-15T02:46:17;10.68;;;1.92;;
64339;SDS011;63709;53.258;-8.814;2023-05-15T02:48:45;8.38;;;2.03;;
64339;SDS011;63709;53.258;-8.814;2023-05-15T02:51:12;10.63;;;2.03;;
64339;SDS011;63709;53.258;-8.814;2023-05-15T02:53:40;8.30;;;2.13;;
64339;SDS011;63709;53.258;-8.814;2023-05-15T02:56:07;10.63;;;2.50;;
64339;SDS011;63709;53.258;-8.814;2023-05-15T02:58:33;8.50;;;2.15;;
64339;SDS011;63709;53.258;-8.814;2023-05-15T03:03:26;9.02;;;2.10;;
64339;SDS011;63709;53.258;-8.814;2023-05-15T03:05:52;10.32;;;2.22;;
64339;SDS011;63709;53.258;-8.814;2023-05-15T03:08:24;10.03;;;2.47;;
64339;SDS011;63709;53.258;-8.814;2023-05-15T03:10:50;13.55;;;2.53;;
64339;SDS011;63709;53.258;-8.814;2023-05-15T03:13:16;8.77;;;1.90;;
64339;SDS011;63709;53.258;-8.814;2023-05-15T03:15:44;10.27;;;2.22;;
64339;SDS011;63709;53.258;-8.814;2023-05-15T03:18:11;10.82;;;1.95;;
64339;SDS011;63709;53.258;-8.814;2023-05-15T03:20:37;9.85;;;1.90;;
64339;SDS011;63709;53.258;-8.814;2023-05-15T03:23:03;11.25;;;2.20;;
64339;SDS011;63709;53.258;-8.814;2023-05-15T03:25:29;8.73;;;2.03;;
64339;SDS011;63709;53.258;-8.814;2023-05-15T03:27:55;5.32;;;1.98;;
64339;SDS011;63709;53.258;-8.814;2023-05-15T03:30:21;6.55;;;2.08;;
64339;SDS011;63709;53.258;-8.814;2023-05-15T03:32:47;10.70;;;2.13;;
64339;SDS011;63709;53.258;-8.814;2023-05-15T03:35:14;6.97;;;1.90;;
64339;SDS011;63709;53.258;-8.814;2023-05-15T03:37:40;9.27;;;2.25;;
64339;SDS011;63709;53.258;-8.814;2023-05-15T03:40:07;6.93;;;2.17;;
64339;SDS011;63709;53.258;-8.814;2023-05-15T03:42:33;16.92;;;2.92;;
64339;SDS011;63709;53.258;-8.814;2023-05-15T03:45:00;12.15;;;2.20;;
64339;SDS011;63709;53.258;-8.814;2023-05-15T03:47:25;7.20;;;1.85;;
64339;SDS011;63709;53.258;-8.814;2023-05-15T03:49:51;9.35;;;2.47;;
64339;SDS011;63709;53.258;-8.814;2023-05-15T03:52:16;11.07;;;2.10;;
64339;SDS011;63709;53.258;-8.814;2023-05-15T03:54:42;13.95;;;2.35;;
64339;SDS011;63709;53.258;-8.814;2023-05-15T03:57:08;9.93;;;2.17;;
64339;SDS011;63709;53.258;-8.814;2023-05-15T03:59:34;7.20;;;1.98;;
64339;SDS011;63709;53.258;-8.814;2023-05-15T04:02:00;11.02;;;1.75;;
64339;SDS011;63709;53.258;-8.814;2023-05-15T04:04:26;9.15;;;2.03;;
64339;SDS011;63709;53.258;-8.814;2023-05-15T04:06:52;5.28;;;1.63;;
64339;SDS011;63709;53.258;-8.814;2023-05-15T04:09:17;6.72;;;1.83;;
64339;SDS011;63709;53.258;-8.814;2023-05-15T04:11:43;7.45;;;2.20;;
64339;SDS011;63709;53.258;-8.814;2023-05-15T04:14:11;10.65;;;2.67;;
64339;SDS011;63709;53.258;-8.814;2023-05-15T04:16:38;7.30;;;1.90;;
64339;SDS011;63709;53.258;-8.814;2023-05-15T04:19:03;17.33;;;2.78;;
64339;SDS011;63709;53.258;-8.814;2023-05-15T04:21:29;9.13;;;2.33;;
64339;SDS011;63709;53.258;-8.814;2023-05-15T04:23:55;12.65;;;2.60;;
64339;SDS011;63709;53.258;-8.814;2023-05-15T04:26:21;8.27;;;1.95;;
64339;SDS011;63709;53.258;-8.814;2023-05-15T04:28:47;11.38;;;2.63;;
64339;SDS011;63709;53.258;-8.814;2023-05-15T04:31:12;6.82;;;2.10;;
64339;SDS011;63709;53.258;-8.814;2023-05-15T04:33:38;12.02;;;2.22;;
64339;SDS011;63709;53.258;-8.814;2023-05-15T04:36:06;11.20;;;1.90;;
64339;SDS011;63709;53.258;-8.814;2023-05-15T04:38:32;9.32;;;2.20;;
64339;SDS011;63709;53.258;-8.814;2023-05-15T04:40:58;15.68;;;3.10;;
64339;SDS011;63709;53.258;-8.814;2023-05-15T04:43:24;11.95;;;2.22;;
64339;SDS011;63709;53.258;-8.814;2023-05-15T04:45:49;11.10;;;2.17;;
64339;SDS011;63709;53.258;-8.814;2023-05-15T04:48:15;7.20;;;2.25;;
64339;SDS011;63709;53.258;-8.814;2023-05-15T04:50:43;13.40;;;2.05;;
64339;SDS011;63709;53.258;-8.814;2023-05-15T04:53:09;13.75;;;2.10;;
64339;SDS011;63709;53.258;-8.814;2023-05-15T04:55:34;13.15;;;4.05;;
64339;SDS011;63709;53.258;-8.814;2023-05-15T04:58:01;14.50;;;2.75;;
64339;SDS011;63709;53.258;-8.814;2023-05-15T05:00:27;11.13;;;2.15;;
64339;SDS011;63709;53.258;-8.814;2023-05-15T05:02:54;12.02;;;3.55;;
64339;SDS011;63709;53.258;-8.814;2023-05-15T05:05:20;5.97;;;1.90;;
64339;SDS011;63709;53.258;-8.814;2023-05-15T05:07:45;15.57;;;3.47;;
64339;SDS011;63709;53.258;-8.814;2023-05-15T05:10:11;10.93;;;2.10;;
64339;SDS011;63709;53.258;-8.814;2023-05-15T05:12:38;10.13;;;2.25;;
64339;SDS011;63709;53.258;-8.814;2023-05-15T05:15:03;8.63;;;2.15;;
64339;SDS011;63709;53.258;-8.814;2023-05-15T05:17:30;6.25;;;1.90;;
64339;SDS011;63709;53.258;-8.814;2023-05-15T05:19:56;8.50;;;2.05;;
64339;SDS011;63709;53.258;-8.814;2023-05-15T05:22:23;11.93;;;2.47;;
64339;SDS011;63709;53.258;-8.814;2023-05-15T05:24:48;10.70;;;2.20;;
64339;SDS011;63709;53.258;-8.814;2023-05-15T05:27:14;11.73;;;2.73;;
64339;SDS011;63709;53.258;-8.814;2023-05-15T05:29:40;8.93;;;2.20;;
64339;SDS011;63709;53.258;-8.814;2023-05-15T05:32:06;8.98;;;2.20;;
64339;SDS011;63709;53.258;-8.814;2023-05-15T05:34:33;13.20;;;2.03;;
64339;SDS011;63709;53.258;-8.814;2023-05-15T05:39:24;15.60;;;2.15;;
64339;SDS011;63709;53.258;-8.814;2023-05-15T05:41:51;8.18;;;2.03;;
64339;SDS011;63709;53.258;-8.814;2023-05-15T05:44:17;10.20;;;2.20;;
64339;SDS011;63709;53.258;-8.814;2023-05-15T05:46:43;9.95;;;2.42;;
64339;SDS011;63709;53.258;-8.814;2023-05-15T05:49:10;11.40;;;2.10;;
64339;SDS011;63709;53.258;-8.814;2023-05-15T05:51:36;8.38;;;2.45;;
64339;SDS011;63709;53.258;-8.814;2023-05-15T05:54:02;11.25;;;2.20;;
64339;SDS011;63709;53.258;-8.814;2023-05-15T05:56:28;10.10;;;2.53;;
64339;SDS011;63709;53.258;-8.814;2023-05-15T05:58:53;10.35;;;2.65;;
64339;SDS011;63709;53.258;-8.814;2023-05-15T06:01:20;10.45;;;2.40;;
64339;SDS011;63709;53.258;-8.814;2023-05-15T06:06:12;11.18;;;1.92;;
64339;SDS011;63709;53.258;-8.814;2023-05-15T06:08:37;15.30;;;1.90;;
64339;SDS011;63709;53.258;-8.814;2023-05-15T06:11:03;12.57;;;2.28;;
64339;SDS011;63709;53.258;-8.814;2023-05-15T06:13:29;10.15;;;2.00;;
64339;SDS011;63709;53.258;-8.814;2023-05-15T06:15:56;12.85;;;2.25;;
64339;SDS011;63709;53.258;-8.814;2023-05-15T06:18:22;9.63;;;1.90;;
64339;SDS011;63709;53.258;-8.814;2023-05-15T06:20:48;6.63;;;2.08;;
64339;SDS011;63709;53.258;-8.814;2023-05-15T06:23:17;9.68;;;1.77;;
64339;SDS011;63709;53.258;-8.814;2023-05-15T06:25:43;7.93;;;1.90;;
64339;SDS011;63709;53.258;-8.814;2023-05-15T06:28:09;7.38;;;1.65;;
64339;SDS011;63709;53.258;-8.814;2023-05-15T06:30:36;10.20;;;1.70;;
64339;SDS011;63709;53.258;-8.814;2023-05-15T06:33:01;8.23;;;1.73;;
64339;SDS011;63709;53.258;-8.814;2023-05-15T06:35:27;10.90;;;2.13;;
64339;SDS011;63709;53.258;-8.814;2023-05-15T06:37:56;8.43;;;1.70;;
64339;SDS011;63709;53.258;-8.814;2023-05-15T06:40:21;8.57;;;1.83;;
64339;SDS011;63709;53.258;-8.814;2023-05-15T06:42:47;9.45;;;1.83;;
64339;SDS011;63709;53.258;-8.814;2023-05-15T06:45:12;6.88;;;1.88;;
64339;SDS011;63709;53.258;-8.814;2023-05-15T06:47:38;8.83;;;1.80;;
64339;SDS011;63709;53.258;-8.814;2023-05-15T06:50:04;9.60;;;2.40;;
64339;SDS011;63709;53.258;-8.814;2023-05-15T06:52:31;7.55;;;2.13;;
64339;SDS011;63709;53.258;-8.814;2023-05-15T06:54:57;8.90;;;1.67;;
64339;SDS011;63709;53.258;-8.814;2023-05-15T06:57:23;6.60;;;1.70;;
64339;SDS011;63709;53.258;-8.814;2023-05-15T06:59:49;14.17;;;2.30;;
64339;SDS011;63709;53.258;-8.814;2023-05-15T07:02:15;7.03;;;1.50;;
64339;SDS011;63709;53.258;-8.814;2023-05-15T07:04:40;7.28;;;1.48;;
64339;SDS011;63709;53.258;-8.814;2023-05-15T07:07:06;5.75;;;1.50;;
64339;SDS011;63709;53.258;-8.814;2023-05-15T07:09:33;6.72;;;1.60;;
64339;SDS011;63709;53.258;-8.814;2023-05-15T07:11:59;6.57;;;1.85;;
64339;SDS011;63709;53.258;-8.814;2023-05-15T07:14:25;6.97;;;1.50;;
64339;SDS011;63709;53.258;-8.814;2023-05-15T07:16:52;7.20;;;1.58;;
64339;SDS011;63709;53.258;-8.814;2023-05-15T07:19:17;5.70;;;1.23;;
64339;SDS011;63709;53.258;-8.814;2023-05-15T07:21:45;8.02;;;1.60;;
64339;SDS011;63709;53.258;-8.814;2023-05-15T07:24:10;7.25;;;1.52;;
64339;SDS011;63709;53.258;-8.814;2023-05-15T07:26:37;4.95;;;1.40;;
64339;SDS011;63709;53.258;-8.814;2023-05-15T07:29:03;7.57;;;1.48;;
64339;SDS011;63709;53.258;-8.814;2023-05-15T07:31:28;8.45;;;1.75;;
64339;SDS011;63709;53.258;-8.814;2023-05-15T07:33:55;8.85;;;1.42;;
64339;SDS011;63709;53.258;-8.814;2023-05-15T07:36:22;5.63;;;1.55;;
64339;SDS011;63709;53.258;-8.814;2023-05-15T07:38:47;4.53;;;1.65;;
64339;SDS011;63709;53.258;-8.814;2023-05-15T07:41:14;4.40;;;1.38;;
64339;SDS011;63709;53.258;-8.814;2023-05-15T07:43:41;5.45;;;1.70;;
64339;SDS011;63709;53.258;-8.814;2023-05-15T07:46:06;4.75;;;1.42;;
64339;SDS011;63709;53.258;-8.814;2023-05-15T07:48:32;6.32;;;1.40;;
64339;SDS011;63709;53.258;-8.814;2023-05-15T07:50:58;7.32;;;1.83;;
64339;SDS011;63709;53.258;-8.814;2023-05-15T07:53:23;8.70;;;1.33;;
64339;SDS011;63709;53.258;-8.814;2023-05-15T07:55:50;5.60;;;1.40;;
64339;SDS011;63709;53.258;-8.814;2023-05-15T07:58:16;10.30;;;1.58;;
64339;SDS011;63709;53.258;-8.814;2023-05-15T08:00:42;12.95;;;1.50;;
64339;SDS011;63709;53.258;-8.814;2023-05-15T08:03:09;13.80;;;1.67;;
64339;SDS011;63709;53.258;-8.814;2023-05-15T08:05:35;7.30;;;1.35;;
64339;SDS011;63709;53.258;-8.814;2023-05-15T08:08:02;7.53;;;1.70;;
64339;SDS011;63709;53.258;-8.814;2023-05-15T08:10:27;6.63;;;1.50;;
64339;SDS011;63709;53.258;-8.814;2023-05-15T08:12:53;9.68;;;1.48;;
64339;SDS011;63709;53.258;-8.814;2023-05-15T08:15:18;9.18;;;1.80;;
64339;SDS011;63709;53.258;-8.814;2023-05-15T08:17:44;4.68;;;1.15;;
64339;SDS011;63709;53.258;-8.814;2023-05-15T08:20:10;9.82;;;1.77;;
64339;SDS011;63709;53.258;-8.814;2023-05-15T08:22:36;6.57;;;1.30;;
64339;SDS011;63709;53.258;-8.814;2023-05-15T08:25:02;10.20;;;1.40;;
64339;SDS011;63709;53.258;-8.814;2023-05-15T08:27:28;8.02;;;1.40;;
64339;SDS011;63709;53.258;-8.814;2023-05-15T08:29:54;9.70;;;1.83;;
64339;SDS011;63709;53.258;-8.814;2023-05-15T08:32:19;11.70;;;1.27;;
64339;SDS011;63709;53.258;-8.814;2023-05-15T08:34:48;5.40;;;1.38;;
64339;SDS011;63709;53.258;-8.814;2023-05-15T08:37:13;7.45;;;1.25;;
64339;SDS011;63709;53.258;-8.814;2023-05-15T08:39:40;6.88;;;1.45;;
64339;SDS011;63709;53.258;-8.814;2023-05-15T08:42:27;6.07;;;1.52;;
64339;SDS011;63709;53.258;-8.814;2023-05-15T08:44:59;4.18;;;1.15;;
64339;SDS011;63709;53.258;-8.814;2023-05-15T08:47:27;4.82;;;1.25;;
64339;SDS011;63709;53.258;-8.814;2023-05-15T08:52:31;3.63;;;0.90;;
64339;SDS011;63709;53.258;-8.814;2023-05-15T08:54:58;4.55;;;0.80;;
64339;SDS011;63709;53.258;-8.814;2023-05-15T08:57:26;5.70;;;1.00;;
64339;SDS011;63709;53.258;-8.814;2023-05-15T08:59:52;5.32;;;0.98;;
64339;SDS011;63709;53.258;-8.814;2023-05-15T09:02:19;7.82;;;0.95;;
64339;SDS011;63709;53.258;-8.814;2023-05-15T09:04:45;5.53;;;0.70;;
64339;SDS011;63709;53.258;-8.814;2023-05-15T09:07:11;4.22;;;0.95;;
64339;SDS011;63709;53.258;-8.814;2023-05-15T09:09:38;5.18;;;1.02;;
64339;SDS011;63709;53.258;-8.814;2023-05-15T09:12:06;3.08;;;0.90;;
64339;SDS011;63709;53.258;-8.814;2023-05-15T09:14:36;2.03;;;0.70;;
64339;SDS011;63709;53.258;-8.814;2023-05-15T09:17:01;6.38;;;1.25;;
64339;SDS011;63709;53.258;-8.814;2023-05-15T09:19:27;2.35;;;0.60;;
64339;SDS011;63709;53.258;-8.814;2023-05-15T09:24:52;6.88;;;1.40;;
64339;SDS011;63709;53.258;-8.814;2023-05-15T09:27:19;4.93;;;1.02;;
64339;SDS011;63709;53.258;-8.814;2023-05-15T09:29:45;4.18;;;0.95;;
64339;SDS011;63709;53.258;-8.814;2023-05-15T09:34:38;3.22;;;1.02;;
64339;SDS011;63709;53.258;-8.814;2023-05-15T09:37:06;4.93;;;1.30;;
64339;SDS011;63709;53.258;-8.814;2023-05-15T09:39:39;5.88;;;1.35;;
64339;SDS011;63709;53.258;-8.814;2023-05-15T09:42:06;7.20;;;1.55;;
64339;SDS011;63709;53.258;-8.814;2023-05-15T09:44:33;5.10;;;1.30;;
64339;SDS011;63709;53.258;-8.814;2023-05-15T09:47:00;3.75;;;1.23;;
64339;SDS011;63709;53.258;-8.814;2023-05-15T09:49:30;7.88;;;2.10;;
64339;SDS011;63709;53.258;-8.814;2023-05-15T09:51:59;4.93;;;1.30;;
64339;SDS011;63709;53.258;-8.814;2023-05-15T09:54:26;8.93;;;1.80;;
64339;SDS011;63709;53.258;-8.814;2023-05-15T09:56:52;8.73;;;1.38;;
64339;SDS011;63709;53.258;-8.814;2023-05-15T10:01:50;6.22;;;1.33;;
64339;SDS011;63709;53.258;-8.814;2023-05-15T10:04:17;7.70;;;1.40;;
64339;SDS011;63709;53.258;-8.814;2023-05-15T10:09:12;2.45;;;1.00;;
64339;SDS011;63709;53.258;-8.814;2023-05-15T10:11:42;4.43;;;1.45;;
64339;SDS011;63709;53.258;-8.814;2023-05-15T10:14:14;8.57;;;1.55;;
64339;SDS011;63709;53.258;-8.814;2023-05-15T10:16:43;9.25;;;1.70;;
64339;SDS011;63709;53.258;-8.814;2023-05-15T10:19:10;4.25;;;1.40;;
64339;SDS011;63709;53.258;-8.814;2023-05-15T10:21:37;5.88;;;1.63;;
64339;SDS011;63709;53.258;-8.814;2023-05-15T10:24:05;4.20;;;1.13;;
64339;SDS011;63709;53.258;-8.814;2023-05-15T10:29:05;3.80;;;1.08;;
64339;SDS011;63709;53.258;-8.814;2023-05-15T10:31:40;7.35;;;1.70;;
64339;SDS011;63709;53.258;-8.814;2023-05-15T10:34:07;6.22;;;1.02;;
64339;SDS011;63709;53.258;-8.814;2023-05-15T10:36:37;3.17;;;0.80;;
64339;SDS011;63709;53.258;-8.814;2023-05-15T10:39:05;2.95;;;0.80;;
64339;SDS011;63709;53.258;-8.814;2023-05-15T10:41:35;2.53;;;1.20;;
64339;SDS011;63709;53.258;-8.814;2023-05-15T10:44:02;3.63;;;0.68;;
64339;SDS011;63709;53.258;-8.814;2023-05-15T10:48:57;4.30;;;0.70;;
64339;SDS011;63709;53.258;-8.814;2023-05-15T10:53:53;3.60;;;0.73;;
64339;SDS011;63709;53.258;-8.814;2023-05-15T10:56:24;4.78;;;0.82;;
64339;SDS011;63709;53.258;-8.814;2023-05-15T10:59:05;8.88;;;1.10;;
64339;SDS011;63709;53.258;-8.814;2023-05-15T11:01:34;2.72;;;0.88;;
64339;SDS011;63709;53.258;-8.814;2023-05-15T11:04:07;4.72;;;1.23;;
64339;SDS011;63709;53.258;-8.814;2023-05-15T11:06:37;2.63;;;1.10;;
64339;SDS011;63709;53.258;-8.814;2023-05-15T11:14:17;2.90;;;1.08;;
64339;SDS011;63709;53.258;-8.814;2023-05-15T11:24:26;4.53;;;1.30;;
64339;SDS011;63709;53.258;-8.814;2023-05-15T11:27:00;3.28;;;0.90;;
64339;SDS011;63709;53.258;-8.814;2023-05-15T11:29:27;4.40;;;1.23;;
64339;SDS011;63709;53.258;-8.814;2023-05-15T11:34:34;4.20;;;0.90;;
64339;SDS011;63709;53.258;-8.814;2023-05-15T11:37:08;5.82;;;1.17;;
64339;SDS011;63709;53.258;-8.814;2023-05-15T11:39:43;2.60;;;0.93;;
64339;SDS011;63709;53.258;-8.814;2023-05-15T11:42:13;3.85;;;1.13;;
64339;SDS011;63709;53.258;-8.814;2023-05-15T11:44:38;4.38;;;0.90;;
64339;SDS011;63709;53.258;-8.814;2023-05-15T11:49:36;3.35;;;0.93;;
64339;SDS011;63709;53.258;-8.814;2023-05-15T11:52:02;3.47;;;1.02;;
64339;SDS011;63709;53.258;-8.814;2023-05-15T11:54:28;4.38;;;1.17;;
64339;SDS011;63709;53.258;-8.814;2023-05-15T11:56:56;6.13;;;1.20;;
64339;SDS011;63709;53.258;-8.814;2023-05-15T11:59:25;2.72;;;1.02;;
64339;SDS011;63709;53.258;-8.814;2023-05-15T12:01:51;5.20;;;1.23;;
64339;SDS011;63709;53.258;-8.814;2023-05-15T12:06:43;4.40;;;1.23;;
64339;SDS011;63709;53.258;-8.814;2023-05-15T12:09:14;3.35;;;0.88;;
64339;SDS011;63709;53.258;-8.814;2023-05-15T12:11:46;4.45;;;1.27;;
64339;SDS011;63709;53.258;-8.814;2023-05-15T12:14:16;5.28;;;1.13;;
64339;SDS011;63709;53.258;-8.814;2023-05-15T12:16:41;7.75;;;1.75;;
64339;SDS011;63709;53.258;-8.814;2023-05-15T12:19:07;5.65;;;1.20;;
64339;SDS011;63709;53.258;-8.814;2023-05-15T12:21:36;5.13;;;1.50;;
64339;SDS011;63709;53.258;-8.814;2023-05-15T12:24:09;4.18;;;1.08;;
64339;SDS011;63709;53.258;-8.814;2023-05-15T12:26:36;3.25;;;1.20;;
64339;SDS011;63709;53.258;-8.814;2023-05-15T12:29:03;6.53;;;1.30;;
64339;SDS011;63709;53.258;-8.814;2023-05-15T12:31:30;5.32;;;1.20;;
64339;SDS011;63709;53.258;-8.814;2023-05-15T12:33:57;6.60;;;1.20;;
64339;SDS011;63709;53.258;-8.814;2023-05-15T12:36:23;6.05;;;1.35;;
64339;SDS011;63709;53.258;-8.814;2023-05-15T12:38:54;4.38;;;1.50;;
64339;SDS011;63709;53.258;-8.814;2023-05-15T12:41:20;2.92;;;1.15;;
64339;SDS011;63709;53.258;-8.814;2023-05-15T12:43:46;4.72;;;1.35;;
64339;SDS011;63709;53.258;-8.814;2023-05-15T12:46:13;4.03;;;1.10;;
64339;SDS011;63709;53.258;-8.814;2023-05-15T12:48:39;3.75;;;1.30;;
64339;SDS011;63709;53.258;-8.814;2023-05-15T12:51:06;4.38;;;1.30;;
64339;SDS011;63709;53.258;-8.814;2023-05-15T12:53:32;4.25;;;1.42;;
64339;SDS011;63709;53.258;-8.814;2023-05-15T12:58:25;8.88;;;1.48;;
64339;SDS011;63709;53.258;-8.814;2023-05-15T13:00:52;6.78;;;1.88;;
64339;SDS011;63709;53.258;-8.814;2023-05-15T13:03:18;7.03;;;1.52;;
64339;SDS011;63709;53.258;-8.814;2023-05-15T13:05:47;4.10;;;1.17;;
64339;SDS011;63709;53.258;-8.814;2023-05-15T13:08:14;4.32;;;1.20;;
64339;SDS011;63709;53.258;-8.814;2023-05-15T13:10:45;7.90;;;1.50;;
64339;SDS011;63709;53.258;-8.814;2023-05-15T13:13:11;6.45;;;1.40;;
64339;SDS011;63709;53.258;-8.814;2023-05-15T13:15:38;3.90;;;1.27;;
64339;SDS011;63709;53.258;-8.814;2023-05-15T13:18:07;5.82;;;1.48;;
64339;SDS011;63709;53.258;-8.814;2023-05-15T13:20:47;6.65;;;1.67;;
64339;SDS011;63709;53.258;-8.814;2023-05-15T13:23:19;3.05;;;1.08;;
64339;SDS011;63709;53.258;-8.814;2023-05-15T13:25:48;6.30;;;1.40;;
64339;SDS011;63709;53.258;-8.814;2023-05-15T13:28:13;6.10;;;1.48;;
64339;SDS011;63709;53.258;-8.814;2023-05-15T13:30:40;5.03;;;1.52;;
64339;SDS011;63709;53.258;-8.814;2023-05-15T13:33:07;6.75;;;1.30;;
64339;SDS011;63709;53.258;-8.814;2023-05-15T13:35:35;16.77;;;1.90;;
64339;SDS011;63709;53.258;-8.814;2023-05-15T13:38:02;5.30;;;1.48;;
64339;SDS011;63709;53.258;-8.814;2023-05-15T13:40:28;6.20;;;1.52;;
64339;SDS011;63709;53.258;-8.814;2023-05-15T13:42:55;5.32;;;1.20;;
64339;SDS011;63709;53.258;-8.814;2023-05-15T13:45:20;4.38;;;1.10;;
64339;SDS011;63709;53.258;-8.814;2023-05-15T13:47:46;2.85;;;1.13;;
64339;SDS011;63709;53.258;-8.814;2023-05-15T13:50:25;5.20;;;1.17;;
64339;SDS011;63709;53.258;-8.814;2023-05-15T13:52:51;4.00;;;1.10;;
64339;SDS011;63709;53.258;-8.814;2023-05-15T13:55:19;6.90;;;1.65;;
64339;SDS011;63709;53.258;-8.814;2023-05-15T13:57:45;6.95;;;1.55;;
64339;SDS011;63709;53.258;-8.814;2023-05-15T14:00:11;7.35;;;2.13;;
64339;SDS011;63709;53.258;-8.814;2023-05-15T14:02:38;5.95;;;1.38;;
64339;SDS011;63709;53.258;-8.814;2023-05-15T14:05:04;4.28;;;1.15;;
64339;SDS011;63709;53.258;-8.814;2023-05-15T14:10:03;6.95;;;1.75;;
64339;SDS011;63709;53.258;-8.814;2023-05-15T14:12:30;4.22;;;1.10;;
64339;SDS011;63709;53.258;-8.814;2023-05-15T14:14:56;4.93;;;1.42;;
64339;SDS011;63709;53.258;-8.814;2023-05-15T14:19:48;6.30;;;1.30;;
64339;SDS011;63709;53.258;-8.814;2023-05-15T14:22:14;3.40;;;1.15;;
64339;SDS011;63709;53.258;-8.814;2023-05-15T14:24:40;4.97;;;1.23;;
64339;SDS011;63709;53.258;-8.814;2023-05-15T14:27:06;4.28;;;1.85;;
64339;SDS011;63709;53.258;-8.814;2023-05-15T14:29:32;3.72;;;1.10;;
64339;SDS011;63709;53.258;-8.814;2023-05-15T14:31:58;5.65;;;1.30;;
64339;SDS011;63709;53.258;-8.814;2023-05-15T14:34:24;5.20;;;1.17;;
64339;SDS011;63709;53.258;-8.814;2023-05-15T14:36:50;6.68;;;1.48;;
64339;SDS011;63709;53.258;-8.814;2023-05-15T14:39:15;6.72;;;1.25;;
64339;SDS011;63709;53.258;-8.814;2023-05-15T14:41:44;7.13;;;1.58;;
64339;SDS011;63709;53.258;-8.814;2023-05-15T14:44:10;6.28;;;1.60;;
64339;SDS011;63709;53.258;-8.814;2023-05-15T14:46:36;7.30;;;2.35;;
64339;SDS011;63709;53.258;-8.814;2023-05-15T14:51:30;10.27;;;1.70;;
64339;SDS011;63709;53.258;-8.814;2023-05-15T14:53:56;2.00;;;1.10;;
64339;SDS011;63709;53.258;-8.814;2023-05-15T14:56:22;3.90;;;1.23;;
64339;SDS011;63709;53.258;-8.814;2023-05-15T14:58:48;2.92;;;1.23;;
64339;SDS011;63709;53.258;-8.814;2023-05-15T15:01:16;6.50;;;1.42;;
64339;SDS011;63709;53.258;-8.814;2023-05-15T15:03:41;5.45;;;1.45;;
64339;SDS011;63709;53.258;-8.814;2023-05-15T15:08:33;7.90;;;1.50;;
64339;SDS011;63709;53.258;-8.814;2023-05-15T15:10:58;5.32;;;1.42;;
64339;SDS011;63709;53.258;-8.814;2023-05-15T15:13:24;6.00;;;1.30;;
64339;SDS011;63709;53.258;-8.814;2023-05-15T15:18:20;4.05;;;1.23;;
64339;SDS011;63709;53.258;-8.814;2023-05-15T15:20:46;5.82;;;1.45;;
64339;SDS011;63709;53.258;-8.814;2023-05-15T15:25:37;8.77;;;1.63;;
64339;SDS011;63709;53.258;-8.814;2023-05-15T15:28:04;4.90;;;1.40;;
64339;SDS011;63709;53.258;-8.814;2023-05-15T15:30:30;7.35;;;1.83;;
64339;SDS011;63709;53.258;-8.814;2023-05-15T15:32:56;6.70;;;1.65;;
64339;SDS011;63709;53.258;-8.814;2023-05-15T15:35:23;6.45;;;1.23;;
64339;SDS011;63709;53.258;-8.814;2023-05-15T15:37:49;7.05;;;1.77;;
64339;SDS011;63709;53.258;-8.814;2023-05-15T15:40:14;5.63;;;1.92;;
64339;SDS011;63709;53.258;-8.814;2023-05-15T15:42:39;5.38;;;1.45;;
64339;SDS011;63709;53.258;-8.814;2023-05-15T15:45:05;4.63;;;1.40;;
64339;SDS011;63709;53.258;-8.814;2023-05-15T15:49:57;6.20;;;1.42;;
64339;SDS011;63709;53.258;-8.814;2023-05-15T15:52:23;7.13;;;1.50;;
64339;SDS011;63709;53.258;-8.814;2023-05-15T15:54:51;4.32;;;1.20;;
64339;SDS011;63709;53.258;-8.814;2023-05-15T15:57:17;10.77;;;1.38;;
64339;SDS011;63709;53.258;-8.814;2023-05-15T15:59:43;7.05;;;1.67;;
64339;SDS011;63709;53.258;-8.814;2023-05-15T16:02:10;6.78;;;1.50;;
64339;SDS011;63709;53.258;-8.814;2023-05-15T16:04:36;5.78;;;2.13;;
64339;SDS011;63709;53.258;-8.814;2023-05-15T16:07:03;4.55;;;1.50;;
64339;SDS011;63709;53.258;-8.814;2023-05-15T16:09:31;4.15;;;1.40;;